sensor_id;sensor_type;location;lat;lon;timestamp;pressure;altitude;pressure_sealevel;temperature;humidity
5780;BME280;2916;49.798;10.022;2022-09-24T00:01:09;146821.19;;;10.26;93.99
5780;BME280;2916;49.798;10.022;2022-09-24T00:03:38;146781.44;;;10.10;93.31
5780;BME280;2916;49.798;10.022;2022-09-24T00:06:07;146790.09;;;10.14;93.10
5780;BME280;2916;49.798;10.022;2022-09-24T00:08:35;146743.00;;;9.94;93.33
5780;BME280;2916;49.798;10.022;2022-09-24T00:11:04;146786.38;;;10.12;93.35
5780;BME280;2916;49.798;10.022;2022-09-24T00:13:34;146793.84;;;10.15;94.06
5780;BME280;2916;49.798;10.022;2022-09-24T00:16:04;146798.78;;;10.17;93.61
5780;BME280;2916;49.798;10.022;2022-09-24T00:18:34;146778.94;;;10.09;93.11
5780;BME280;2916;49.798;10.022;2022-09-24T00:21:12;146796.31;;;10.16;92.77
5780;BME280;2916;49.798;10.022;2022-09-24T00:23:40;146776.47;;;10.08;92.96
5780;BME280;2916;49.798;10.022;2022-09-24T00:26:10;146694.56;;;9.74;94.17
5780;BME280;2916;49.798;10.022;2022-09-24T00:28:54;146755.38;;;9.99;93.78
5780;BME280;2916;49.798;10.022;2022-09-24T00:31:21;146747.94;;;9.96;94.18
5780;BME280;2916;49.798;10.022;2022-09-24T00:33:49;146754.16;;;9.99;93.95
5780;BME280;2916;49.798;10.022;2022-09-24T00:36:18;146756.63;;;10.00;94.83
5780;BME280;2916;49.798;10.022;2022-09-24T00:38:49;146744.22;;;9.95;93.97
5780;BME280;2916;49.798;10.022;2022-09-24T00:41:17;146698.31;;;9.76;94.78
5780;BME280;2916;49.798;10.022;2022-09-24T00:43:47;146720.63;;;9.85;94.08
5780;BME280;2916;49.798;10.022;2022-09-24T00:46:21;146736.78;;;9.92;96.05
5780;BME280;2916;49.798;10.022;2022-09-24T00:48:57;146736.78;;;9.92;95.98
5780;BME280;2916;49.798;10.022;2022-09-24T00:51:27;146741.72;;;9.94;95.32
5780;BME280;2916;49.798;10.022;2022-09-24T00:54:00;146607.78;;;9.39;95.13
5780;BME280;2916;49.798;10.022;2022-09-24T00:56:31;146720.63;;;9.85;95.40
5780;BME280;2916;49.798;10.022;2022-09-24T00:59:04;146720.63;;;9.85;96.67
5780;BME280;2916;49.798;10.022;2022-09-24T01:01:32;146731.78;;;9.90;95.18
5780;BME280;2916;49.798;10.022;2022-09-24T01:04:01;146734.31;;;9.91;95.55
5780;BME280;2916;49.798;10.022;2022-09-24T01:06:30;146746.69;;;9.96;95.81
5780;BME280;2916;49.798;10.022;2022-09-24T01:08:58;146728.09;;;9.88;95.14
5780;BME280;2916;49.798;10.022;2022-09-24T01:11:40;146724.38;;;9.87;95.16
5780;BME280;2916;49.798;10.022;2022-09-24T01:14:45;146710.72;;;9.81;97.42
5780;BME280;2916;49.798;10.022;2022-09-24T01:17:25;146744.22;;;9.95;96.89
5780;BME280;2916;49.798;10.022;2022-09-24T01:23:17;146739.25;;;9.93;97.20
5780;BME280;2916;49.798;10.022;2022-09-24T01:25:57;146736.78;;;9.92;96.55
5780;BME280;2916;49.798;10.022;2022-09-24T01:28:43;146690.88;;;9.73;97.80
5780;BME280;2916;49.798;10.022;2022-09-24T01:31:24;146668.56;;;9.64;98.88
5780;BME280;2916;49.798;10.022;2022-09-24T01:33:54;146669.81;;;9.64;99.42
5780;BME280;2916;49.798;10.022;2022-09-24T01:36:26;146641.28;;;9.52;99.96
5780;BME280;2916;49.798;10.022;2022-09-24T01:38:57;146649.97;;;9.56;100.00
5780;BME280;2916;49.798;10.022;2022-09-24T01:41:25;146687.16;;;9.71;100.00
5780;BME280;2916;49.798;10.022;2022-09-24T01:43:53;146685.94;;;9.71;98.43
5780;BME280;2916;49.798;10.022;2022-09-24T01:46:23;146630.13;;;9.48;97.80
5780;BME280;2916;49.798;10.022;2022-09-24T01:48:50;146661.13;;;9.61;96.67
5780;BME280;2916;49.798;10.022;2022-09-24T01:51:23;146677.25;;;9.67;97.29
5780;BME280;2916;49.798;10.022;2022-09-24T01:53:57;146668.56;;;9.64;95.72
5780;BME280;2916;49.798;10.022;2022-09-24T01:56:33;146674.72;;;9.66;95.73
5780;BME280;2916;49.798;10.022;2022-09-24T01:59:09;146570.56;;;9.23;95.94
5780;BME280;2916;49.798;10.022;2022-09-24T02:01:44;146635.06;;;9.50;96.31
5780;BME280;2916;49.798;10.022;2022-09-24T02:04:17;146592.91;;;9.32;95.97
5780;BME280;2916;49.798;10.022;2022-09-24T02:06:55;146626.38;;;9.46;95.88
5780;BME280;2916;49.798;10.022;2022-09-24T02:09:32;146641.28;;;9.52;95.39
5780;BME280;2916;49.798;10.022;2022-09-24T02:12:09;146614.00;;;9.41;95.94
5780;BME280;2916;49.798;10.022;2022-09-24T02:14:43;146649.97;;;9.56;98.36
5780;BME280;2916;49.798;10.022;2022-09-24T02:17:13;146649.97;;;9.56;97.52
5780;BME280;2916;49.798;10.022;2022-09-24T02:19:41;146612.75;;;9.41;96.29
5780;BME280;2916;49.798;10.022;2022-09-24T02:22:13;146612.75;;;9.41;96.77
5780;BME280;2916;49.798;10.022;2022-09-24T02:24:47;146605.31;;;9.38;96.45
5780;BME280;2916;49.798;10.022;2022-09-24T02:27:16;146614.00;;;9.41;96.15
5780;BME280;2916;49.798;10.022;2022-09-24T02:29:43;146615.22;;;9.42;98.13
5780;BME280;2916;49.798;10.022;2022-09-24T02:32:17;146604.06;;;9.37;97.68
5780;BME280;2916;49.798;10.022;2022-09-24T02:34:50;146617.69;;;9.43;96.56
5780;BME280;2916;49.798;10.022;2022-09-24T02:37:21;146615.22;;;9.42;96.69
5780;BME280;2916;49.798;10.022;2022-09-24T02:39:50;146592.91;;;9.32;98.10
5780;BME280;2916;49.798;10.022;2022-09-24T02:42:19;146609.00;;;9.39;96.82
5780;BME280;2916;49.798;10.022;2022-09-24T02:44:47;146616.47;;;9.42;98.21
5780;BME280;2916;49.798;10.022;2022-09-24T02:47:15;146620.22;;;9.44;98.06
5780;BME280;2916;49.798;10.022;2022-09-24T02:49:43;146615.22;;;9.42;98.18
5780;BME280;2916;49.798;10.022;2022-09-24T02:52:10;146600.38;;;9.36;98.45
5780;BME280;2916;49.798;10.022;2022-09-24T02:54:38;146615.22;;;9.42;99.59
5780;BME280;2916;49.798;10.022;2022-09-24T02:57:05;146632.59;;;9.49;99.79
5780;BME280;2916;49.798;10.022;2022-09-24T02:59:33;146635.06;;;9.50;99.04
5780;BME280;2916;49.798;10.022;2022-09-24T03:02:00;146641.28;;;9.52;100.00
5780;BME280;2916;49.798;10.022;2022-09-24T03:04:29;146636.28;;;9.50;100.00
5780;BME280;2916;49.798;10.022;2022-09-24T03:06:56;146640.03;;;9.52;99.94
5780;BME280;2916;49.798;10.022;2022-09-24T03:09:23;146647.50;;;9.55;100.00
5780;BME280;2916;49.798;10.022;2022-09-24T03:11:50;146641.28;;;9.52;99.88
5780;BME280;2916;49.798;10.022;2022-09-24T03:14:17;146649.97;;;9.56;100.00
5780;BME280;2916;49.798;10.022;2022-09-24T03:16:45;146659.88;;;9.60;100.00
5780;BME280;2916;49.798;10.022;2022-09-24T03:19:12;146653.66;;;9.57;100.00
5780;BME280;2916;49.798;10.022;2022-09-24T03:21:40;146667.34;;;9.63;100.00
5780;BME280;2916;49.798;10.022;2022-09-24T03:24:07;146674.72;;;9.66;100.00
5780;BME280;2916;49.798;10.022;2022-09-24T03:26:34;146677.25;;;9.67;100.00
5780;BME280;2916;49.798;10.022;2022-09-24T03:29:02;146647.50;;;9.55;100.00
5780;BME280;2916;49.798;10.022;2022-09-24T03:31:29;146680.94;;;9.69;100.00
5780;BME280;2916;49.798;10.022;2022-09-24T03:33:56;146679.72;;;9.68;100.00
5780;BME280;2916;49.798;10.022;2022-09-24T03:36:24;146680.94;;;9.69;100.00
5780;BME280;2916;49.798;10.022;2022-09-24T03:38:55;146664.81;;;9.62;100.00
5780;BME280;2916;49.798;10.022;2022-09-24T03:41:23;146667.34;;;9.63;100.00
5780;BME280;2916;49.798;10.022;2022-09-24T03:43:51;146659.88;;;9.60;100.00
5780;BME280;2916;49.798;10.022;2022-09-24T03:46:18;146679.72;;;9.68;100.00
5780;BME280;2916;49.798;10.022;2022-09-24T03:48:46;146682.19;;;9.69;100.00
5780;BME280;2916;49.798;10.022;2022-09-24T03:51:16;146687.16;;;9.71;100.00
5780;BME280;2916;49.798;10.022;2022-09-24T03:53:45;146682.19;;;9.69;100.00
5780;BME280;2916;49.798;10.022;2022-09-24T03:56:14;146689.63;;;9.72;99.82
5780;BME280;2916;49.798;10.022;2022-09-24T03:58:41;146689.63;;;9.72;99.71
5780;BME280;2916;49.798;10.022;2022-09-24T04:01:13;146684.66;;;9.70;99.13
5780;BME280;2916;49.798;10.022;2022-09-24T04:03:40;146654.91;;;9.58;99.94
5780;BME280;2916;49.798;10.022;2022-09-24T04:06:07;146687.16;;;9.71;100.00
5780;BME280;2916;49.798;10.022;2022-09-24T04:08:34;146678.50;;;9.68;99.37
5780;BME280;2916;49.798;10.022;2022-09-24T04:11:02;146664.81;;;9.62;99.09
5780;BME280;2916;49.798;10.022;2022-09-24T04:13:31;146657.41;;;9.59;99.64
5780;BME280;2916;49.798;10.022;2022-09-24T04:16:01;146595.41;;;9.33;99.37
5780;BME280;2916;49.798;10.022;2022-09-24T04:18:28;146560.66;;;9.19;98.54
5780;BME280;2916;49.798;10.022;2022-09-24T04:20:58;146620.22;;;9.44;98.10
5780;BME280;2916;49.798;10.022;2022-09-24T04:23:25;146506.16;;;8.97;96.98
5780;BME280;2916;49.798;10.022;2022-09-24T04:25:55;146600.38;;;9.36;97.04
5780;BME280;2916;49.798;10.022;2022-09-24T04:28:23;146575.56;;;9.25;96.40
5780;BME280;2916;49.798;10.022;2022-09-24T04:30:52;146565.63;;;9.21;96.67
5780;BME280;2916;49.798;10.022;2022-09-24T04:33:19;146552.03;;;9.16;96.19
5780;BME280;2916;49.798;10.022;2022-09-24T04:35:46;146545.81;;;9.13;96.69
5780;BME280;2916;49.798;10.022;2022-09-24T04:38:13;146527.22;;;9.05;96.30
5780;BME280;2916;49.798;10.022;2022-09-24T04:40:40;146522.22;;;9.03;96.90
5780;BME280;2916;49.798;10.022;2022-09-24T04:43:09;146540.84;;;9.11;97.85
5780;BME280;2916;49.798;10.022;2022-09-24T04:45:36;146507.38;;;8.97;96.37
5780;BME280;2916;49.798;10.022;2022-09-24T04:48:05;146516.06;;;9.01;96.23
5780;BME280;2916;49.798;10.022;2022-09-24T04:50:32;146516.06;;;9.01;97.55
5780;BME280;2916;49.798;10.022;2022-09-24T04:53:00;146508.63;;;8.98;97.73
5780;BME280;2916;49.798;10.022;2022-09-24T04:55:27;146481.34;;;8.87;97.81
5780;BME280;2916;49.798;10.022;2022-09-24T04:57:57;146487.56;;;8.89;97.46
5780;BME280;2916;49.798;10.022;2022-09-24T05:00:25;146493.72;;;8.92;97.56
5780;BME280;2916;49.798;10.022;2022-09-24T05:02:56;146475.13;;;8.84;96.19
5780;BME280;2916;49.798;10.022;2022-09-24T05:05:26;146471.44;;;8.82;96.72
5780;BME280;2916;49.798;10.022;2022-09-24T05:07:53;146431.78;;;8.66;96.26
5780;BME280;2916;49.798;10.022;2022-09-24T05:10:22;146454.06;;;8.75;96.86
5780;BME280;2916;49.798;10.022;2022-09-24T05:12:49;146431.78;;;8.66;97.38
5780;BME280;2916;49.798;10.022;2022-09-24T05:15:17;146336.31;;;8.27;97.67
5780;BME280;2916;49.798;10.022;2022-09-24T05:17:45;146436.72;;;8.68;98.66
5780;BME280;2916;49.798;10.022;2022-09-24T05:20:13;146452.84;;;8.75;96.44
5780;BME280;2916;49.798;10.022;2022-09-24T05:22:43;146440.47;;;8.70;96.95
5780;BME280;2916;49.798;10.022;2022-09-24T05:25:12;146447.91;;;8.73;99.01
5780;BME280;2916;49.798;10.022;2022-09-24T05:27:45;146321.44;;;8.21;99.31
5780;BME280;2916;49.798;10.022;2022-09-24T05:30:13;146473.91;;;8.83;99.96
5780;BME280;2916;49.798;10.022;2022-09-24T05:32:40;146444.16;;;8.71;100.00
5780;BME280;2916;49.798;10.022;2022-09-24T05:35:08;146468.97;;;8.81;99.97
5780;BME280;2916;49.798;10.022;2022-09-24T05:37:37;146468.97;;;8.81;100.00
5780;BME280;2916;49.798;10.022;2022-09-24T05:40:07;146476.41;;;8.84;100.00
5780;BME280;2916;49.798;10.022;2022-09-24T05:42:59;146476.41;;;8.84;99.81
5780;BME280;2916;49.798;10.022;2022-09-24T05:45:27;146463.97;;;8.79;99.81
5780;BME280;2916;49.798;10.022;2022-09-24T05:47:54;146439.22;;;8.69;99.23
5780;BME280;2916;49.798;10.022;2022-09-24T05:50:22;146446.63;;;8.72;99.19
5780;BME280;2916;49.798;10.022;2022-09-24T05:52:49;146434.25;;;8.67;98.74
5780;BME280;2916;49.798;10.022;2022-09-24T05:55:17;146434.25;;;8.67;98.68
5780;BME280;2916;49.798;10.022;2022-09-24T05:57:45;146415.66;;;8.59;99.12
5780;BME280;2916;49.798;10.022;2022-09-24T06:00:12;146430.53;;;8.66;99.06
5780;BME280;2916;49.798;10.022;2022-09-24T06:02:39;146461.50;;;8.78;99.30
5780;BME280;2916;49.798;10.022;2022-09-24T06:05:08;146442.94;;;8.71;99.34
5780;BME280;2916;49.798;10.022;2022-09-24T06:07:35;146449.13;;;8.73;99.96
5780;BME280;2916;49.798;10.022;2022-09-24T06:10:03;146463.97;;;8.79;100.00
5780;BME280;2916;49.798;10.022;2022-09-24T06:12:33;146463.97;;;8.79;99.84
5780;BME280;2916;49.798;10.022;2022-09-24T06:15:00;146498.69;;;8.94;99.56
5780;BME280;2916;49.798;10.022;2022-09-24T06:17:28;146503.63;;;8.96;99.62
5780;BME280;2916;49.798;10.022;2022-09-24T06:19:57;146434.25;;;8.67;99.27
5780;BME280;2916;49.798;10.022;2022-09-24T06:22:24;146553.25;;;9.16;99.02
5780;BME280;2916;49.798;10.022;2022-09-24T06:24:51;146449.13;;;8.73;99.06
5780;BME280;2916;49.798;10.022;2022-09-24T06:27:18;146559.44;;;9.19;98.19
5780;BME280;2916;49.798;10.022;2022-09-24T06:29:47;146610.28;;;9.40;98.62
5780;BME280;2916;49.798;10.022;2022-09-24T06:32:14;146573.09;;;9.24;98.17
5780;BME280;2916;49.798;10.022;2022-09-24T06:34:41;146612.75;;;9.41;98.05
5780;BME280;2916;49.798;10.022;2022-09-24T06:37:08;146659.88;;;9.60;98.02
5780;BME280;2916;49.798;10.022;2022-09-24T06:39:35;146637.53;;;9.51;98.07
5780;BME280;2916;49.798;10.022;2022-09-24T06:42:02;146731.78;;;9.90;97.62
5780;BME280;2916;49.798;10.022;2022-09-24T06:44:30;146733.03;;;9.90;96.77
5780;BME280;2916;49.798;10.022;2022-09-24T06:47:00;146925.41;;;10.69;96.42
5780;BME280;2916;49.798;10.022;2022-09-24T06:49:27;147111.59;;;11.46;94.40
5780;BME280;2916;49.798;10.022;2022-09-24T06:51:55;147253.25;;;12.04;89.89
5780;BME280;2916;49.798;10.022;2022-09-24T06:54:23;147365.06;;;12.50;86.31
5780;BME280;2916;49.798;10.022;2022-09-24T06:56:50;147504.25;;;13.07;83.89
5780;BME280;2916;49.798;10.022;2022-09-24T06:59:17;147660.94;;;13.71;81.12
5780;BME280;2916;49.798;10.022;2022-09-24T07:01:44;147791.56;;;14.25;78.26
5780;BME280;2916;49.798;10.022;2022-09-24T07:04:13;147673.41;;;13.77;77.92
5780;BME280;2916;49.798;10.022;2022-09-24T07:06:40;147833.88;;;14.42;77.16
5780;BME280;2916;49.798;10.022;2022-09-24T07:09:24;147731.84;;;14.00;75.20
5780;BME280;2916;49.798;10.022;2022-09-24T07:11:51;147944.66;;;14.88;73.61
5780;BME280;2916;49.798;10.022;2022-09-24T07:14:19;147812.69;;;14.34;75.15
5780;BME280;2916;49.798;10.022;2022-09-24T07:16:46;147772.91;;;14.17;76.48
5780;BME280;2916;49.798;10.022;2022-09-24T07:19:15;148081.56;;;15.44;74.89
5780;BME280;2916;49.798;10.022;2022-09-24T07:21:42;148268.47;;;16.20;71.83
5780;BME280;2916;49.798;10.022;2022-09-24T07:24:09;148233.56;;;16.06;69.21
5780;BME280;2916;49.798;10.022;2022-09-24T07:26:36;148343.22;;;16.51;69.95
5780;BME280;2916;49.798;10.022;2022-09-24T07:29:03;148434.19;;;16.88;68.24
5780;BME280;2916;49.798;10.022;2022-09-24T07:31:30;148472.81;;;17.04;66.43
5780;BME280;2916;49.798;10.022;2022-09-24T07:33:58;148480.31;;;17.07;67.69
5780;BME280;2916;49.798;10.022;2022-09-24T07:36:26;148551.34;;;17.36;66.17
5780;BME280;2916;49.798;10.022;2022-09-24T07:38:57;148522.69;;;17.25;65.10
5780;BME280;2916;49.798;10.022;2022-09-24T07:41:24;148482.81;;;17.08;65.97
5780;BME280;2916;49.798;10.022;2022-09-24T07:43:51;148637.38;;;17.72;65.11
5780;BME280;2916;49.798;10.022;2022-09-24T07:46:21;148343.22;;;16.51;64.21
5780;BME280;2916;49.798;10.022;2022-09-24T07:48:51;148066.66;;;15.38;70.16
5780;BME280;2916;49.798;10.022;2022-09-24T07:51:18;148604.97;;;17.58;65.91
5780;BME280;2916;49.798;10.022;2022-09-24T07:53:47;148754.69;;;18.20;62.80
5780;BME280;2916;49.798;10.022;2022-09-24T07:56:14;148470.34;;;17.03;67.83
5780;BME280;2916;49.798;10.022;2022-09-24T07:58:42;148273.41;;;16.23;68.51
5780;BME280;2916;49.798;10.022;2022-09-24T08:01:09;148224.84;;;16.03;70.15
5780;BME280;2916;49.798;10.022;2022-09-24T08:03:37;148757.16;;;18.21;65.37
5780;BME280;2916;49.798;10.022;2022-09-24T08:06:05;148759.66;;;18.22;63.95
5780;BME280;2916;49.798;10.022;2022-09-24T08:08:33;148879.47;;;18.71;62.13
5780;BME280;2916;49.798;10.022;2022-09-24T08:11:03;149016.72;;;19.27;60.58
5780;BME280;2916;49.798;10.022;2022-09-24T08:13:30;149086.59;;;19.55;59.72
5780;BME280;2916;49.798;10.022;2022-09-24T08:15:59;149201.53;;;20.02;58.94
5780;BME280;2916;49.798;10.022;2022-09-24T08:18:29;149232.72;;;20.15;59.26
5780;BME280;2916;49.798;10.022;2022-09-24T08:20:56;149211.50;;;20.06;59.08
5780;BME280;2916;49.798;10.022;2022-09-24T08:23:25;149167.84;;;19.89;59.36
5780;BME280;2916;49.798;10.022;2022-09-24T08:25:53;148929.38;;;18.91;60.45
5780;BME280;2916;49.798;10.022;2022-09-24T08:28:22;149062.91;;;19.46;60.59
5780;BME280;2916;49.798;10.022;2022-09-24T08:30:49;149165.28;;;19.88;59.77
5780;BME280;2916;49.798;10.022;2022-09-24T08:33:16;149156.56;;;19.84;59.63
5780;BME280;2916;49.798;10.022;2022-09-24T08:35:43;149189.03;;;19.97;59.55
5780;BME280;2916;49.798;10.022;2022-09-24T08:38:10;149219.00;;;20.09;59.23
5780;BME280;2916;49.798;10.022;2022-09-24T08:40:44;149149.09;;;19.81;58.80
5780;BME280;2916;49.798;10.022;2022-09-24T08:43:32;149231.47;;;20.15;57.86
5780;BME280;2916;49.798;10.022;2022-09-24T08:46:13;149217.78;;;20.09;59.43
5780;BME280;2916;49.798;10.022;2022-09-24T08:49:01;149104.16;;;19.63;58.14
5780;BME280;2916;49.798;10.022;2022-09-24T08:51:38;148948.09;;;18.99;61.34
5780;BME280;2916;49.798;10.022;2022-09-24T08:54:11;149090.34;;;19.57;59.00
5780;BME280;2916;49.798;10.022;2022-09-24T08:56:44;149102.91;;;19.62;58.92
5780;BME280;2916;49.798;10.022;2022-09-24T08:59:26;148934.34;;;18.93;60.30
5780;BME280;2916;49.798;10.022;2022-09-24T09:02:15;149036.69;;;19.35;59.59
5780;BME280;2916;49.798;10.022;2022-09-24T09:04:58;148822.03;;;18.47;61.63
5780;BME280;2916;49.798;10.022;2022-09-24T09:07:31;148824.53;;;18.48;62.97
5780;BME280;2916;49.798;10.022;2022-09-24T09:10:06;148961.81;;;19.04;62.56
5780;BME280;2916;49.798;10.022;2022-09-24T09:12:39;148941.84;;;18.96;61.96
5780;BME280;2916;49.798;10.022;2022-09-24T09:15:12;148896.91;;;18.78;62.80
5780;BME280;2916;49.798;10.022;2022-09-24T09:17:45;148910.66;;;18.83;64.58
5780;BME280;2916;49.798;10.022;2022-09-24T09:20:18;149125.34;;;19.71;61.34
5780;BME280;2916;49.798;10.022;2022-09-24T09:22:50;149014.25;;;19.26;62.47
5780;BME280;2916;49.798;10.022;2022-09-24T09:25:22;148985.53;;;19.14;60.76
5780;BME280;2916;49.798;10.022;2022-09-24T09:27:58;148994.22;;;19.18;62.15
5780;BME280;2916;49.798;10.022;2022-09-24T09:30:38;148861.94;;;18.63;60.43
5780;BME280;2916;49.798;10.022;2022-09-24T09:33:25;148812.06;;;18.43;61.60
5780;BME280;2916;49.798;10.022;2022-09-24T09:36:02;148780.84;;;18.30;60.49
5780;BME280;2916;49.798;10.022;2022-09-24T09:38:42;148798.31;;;18.37;60.03
5780;BME280;2916;49.798;10.022;2022-09-24T09:41:23;148859.41;;;18.62;61.11
5780;BME280;2916;49.798;10.022;2022-09-24T09:44:00;148915.63;;;18.85;61.04
5780;BME280;2916;49.798;10.022;2022-09-24T09:46:46;148851.97;;;18.59;60.36
5780;BME280;2916;49.798;10.022;2022-09-24T09:49:17;148822.03;;;18.47;60.33
5780;BME280;2916;49.798;10.022;2022-09-24T09:51:48;148974.25;;;19.09;60.73
5780;BME280;2916;49.798;10.022;2022-09-24T09:54:18;149052.94;;;19.42;60.64
5780;BME280;2916;49.798;10.022;2022-09-24T09:56:48;149079.09;;;19.52;60.69
5780;BME280;2916;49.798;10.022;2022-09-24T09:59:19;148924.34;;;18.89;62.00
5780;BME280;2916;49.798;10.022;2022-09-24T10:01:50;149062.91;;;19.46;59.64
5780;BME280;2916;49.798;10.022;2022-09-24T10:04:36;148880.72;;;18.71;59.37
5780;BME280;2916;49.798;10.022;2022-09-24T10:07:08;148850.72;;;18.59;60.33
5780;BME280;2916;49.798;10.022;2022-09-24T10:09:36;149085.38;;;19.55;62.00
5780;BME280;2916;49.798;10.022;2022-09-24T10:12:16;149037.94;;;19.35;59.71
5780;BME280;2916;49.798;10.022;2022-09-24T10:14:57;148936.81;;;18.94;60.49
5780;BME280;2916;49.798;10.022;2022-09-24T10:17:32;148885.69;;;18.73;59.76
5780;BME280;2916;49.798;10.022;2022-09-24T10:20:05;148913.13;;;18.84;59.33
5780;BME280;2916;49.798;10.022;2022-09-24T10:22:36;149096.59;;;19.59;61.29
5780;BME280;2916;49.798;10.022;2022-09-24T10:25:05;149156.56;;;19.84;58.40
5780;BME280;2916;49.798;10.022;2022-09-24T10:27:35;149110.41;;;19.65;57.63
5780;BME280;2916;49.798;10.022;2022-09-24T10:30:12;148799.56;;;18.38;59.73
5780;BME280;2916;49.798;10.022;2022-09-24T10:33:02;148959.31;;;19.03;59.57
5780;BME280;2916;49.798;10.022;2022-09-24T10:35:32;148822.03;;;18.47;59.45
5780;BME280;2916;49.798;10.022;2022-09-24T10:38:13;148903.16;;;18.80;59.24
5780;BME280;2916;49.798;10.022;2022-09-24T10:40:41;148993.00;;;19.17;59.90
5780;BME280;2916;49.798;10.022;2022-09-24T10:43:17;149049.16;;;19.40;57.83
5780;BME280;2916;49.798;10.022;2022-09-24T10:46:16;149008.00;;;19.23;59.72
5780;BME280;2916;49.798;10.022;2022-09-24T10:48:59;148963.03;;;19.05;59.27
5780;BME280;2916;49.798;10.022;2022-09-24T10:51:39;148966.81;;;19.06;58.83
5780;BME280;2916;49.798;10.022;2022-09-24T10:54:36;149084.13;;;19.54;57.93
5780;BME280;2916;49.798;10.022;2022-09-24T10:57:23;148842.00;;;18.55;58.38
5780;BME280;2916;49.798;10.022;2022-09-24T11:00:06;148858.19;;;18.62;59.02
5780;BME280;2916;49.798;10.022;2022-09-24T11:03:18;148949.34;;;18.99;58.93
5780;BME280;2916;49.798;10.022;2022-09-24T11:05:53;148919.41;;;18.87;58.73
5780;BME280;2916;49.798;10.022;2022-09-24T11:08:44;148944.31;;;18.97;57.95
5780;BME280;2916;49.798;10.022;2022-09-24T11:11:36;149091.63;;;19.57;58.34
5780;BME280;2916;49.798;10.022;2022-09-24T11:14:26;149149.09;;;19.81;57.62
5780;BME280;2916;49.798;10.022;2022-09-24T11:17:20;149080.34;;;19.53;57.56
5780;BME280;2916;49.798;10.022;2022-09-24T11:20:23;149009.22;;;19.24;57.47
5780;BME280;2916;49.798;10.022;2022-09-24T11:23:16;149014.25;;;19.26;57.46
5780;BME280;2916;49.798;10.022;2022-09-24T11:25:53;149215.22;;;20.08;57.91
5780;BME280;2916;49.798;10.022;2022-09-24T11:28:48;149338.94;;;20.58;57.97
5780;BME280;2916;49.798;10.022;2022-09-24T11:31:33;149287.69;;;20.38;56.06
5780;BME280;2916;49.798;10.022;2022-09-24T11:34:23;149371.44;;;20.72;56.44
5780;BME280;2916;49.798;10.022;2022-09-24T11:37:15;149451.38;;;21.04;56.22
5780;BME280;2916;49.798;10.022;2022-09-24T11:40:04;149483.84;;;21.18;52.83
5780;BME280;2916;49.798;10.022;2022-09-24T11:42:53;149253.94;;;20.24;53.23
5780;BME280;2916;49.798;10.022;2022-09-24T11:45:47;149398.94;;;20.83;51.83
5780;BME280;2916;49.798;10.022;2022-09-24T11:48:46;149472.59;;;21.13;51.27
5780;BME280;2916;49.798;10.022;2022-09-24T11:51:29;149235.25;;;20.16;53.14
5780;BME280;2916;49.798;10.022;2022-09-24T11:54:07;149223.97;;;20.11;53.36
5780;BME280;2916;49.798;10.022;2022-09-24T11:56:44;149295.19;;;20.41;55.90
5780;BME280;2916;49.798;10.022;2022-09-24T11:59:22;149281.44;;;20.35;54.35
5780;BME280;2916;49.798;10.022;2022-09-24T12:02:04;149245.25;;;20.20;54.52
5780;BME280;2916;49.798;10.022;2022-09-24T12:04:49;149144.09;;;19.79;52.31
5780;BME280;2916;49.798;10.022;2022-09-24T12:07:27;149253.94;;;20.24;53.15
5780;BME280;2916;49.798;10.022;2022-09-24T12:10:02;149288.94;;;20.38;53.29
5780;BME280;2916;49.798;10.022;2022-09-24T12:12:36;149316.47;;;20.49;52.56
5780;BME280;2916;49.798;10.022;2022-09-24T12:15:14;149146.56;;;19.80;53.47
5780;BME280;2916;49.798;10.022;2022-09-24T12:17:50;149164.06;;;19.87;55.27
5780;BME280;2916;49.798;10.022;2022-09-24T12:20:23;149326.44;;;20.53;55.15
5780;BME280;2916;49.798;10.022;2022-09-24T12:22:56;149219.00;;;20.09;55.48
5780;BME280;2916;49.798;10.022;2022-09-24T12:25:28;149236.50;;;20.17;56.34
5780;BME280;2916;49.798;10.022;2022-09-24T12:28:00;149251.47;;;20.23;54.46
5780;BME280;2916;49.798;10.022;2022-09-24T12:30:35;149292.72;;;20.40;55.13
5780;BME280;2916;49.798;10.022;2022-09-24T12:33:30;149276.47;;;20.33;54.88
5780;BME280;2916;49.798;10.022;2022-09-24T12:36:08;149263.97;;;20.28;57.25
5780;BME280;2916;49.798;10.022;2022-09-24T12:38:44;149225.22;;;20.12;56.07
5780;BME280;2916;49.798;10.022;2022-09-24T12:41:27;149358.91;;;20.67;55.31
5780;BME280;2916;49.798;10.022;2022-09-24T12:44:05;149446.34;;;21.02;56.49
5780;BME280;2916;49.798;10.022;2022-09-24T12:46:41;149501.34;;;21.25;55.12
5780;BME280;2916;49.798;10.022;2022-09-24T12:49:26;149397.63;;;20.82;54.33
5780;BME280;2916;49.798;10.022;2022-09-24T12:51:57;149351.44;;;20.64;55.61
5780;BME280;2916;49.798;10.022;2022-09-24T12:54:30;149245.25;;;20.20;56.83
5780;BME280;2916;49.798;10.022;2022-09-24T12:57:10;149281.44;;;20.35;56.56
5780;BME280;2916;49.798;10.022;2022-09-24T12:59:49;149358.91;;;20.67;54.21
5780;BME280;2916;49.798;10.022;2022-09-24T13:02:20;149288.94;;;20.38;55.48
5780;BME280;2916;49.798;10.022;2022-09-24T13:05:24;149261.44;;;20.27;54.89
5780;BME280;2916;49.798;10.022;2022-09-24T13:07:59;149170.31;;;19.90;55.51
5780;BME280;2916;49.798;10.022;2022-09-24T13:10:30;149184.03;;;19.95;56.77
5780;BME280;2916;49.798;10.022;2022-09-24T13:12:59;149184.03;;;19.95;55.42
5780;BME280;2916;49.798;10.022;2022-09-24T13:15:58;149119.09;;;19.69;55.30
5780;BME280;2916;49.798;10.022;2022-09-24T13:18:26;149226.50;;;20.13;56.81
5780;BME280;2916;49.798;10.022;2022-09-24T13:21:00;149122.88;;;19.70;56.22
5780;BME280;2916;49.798;10.022;2022-09-24T13:23:44;149283.97;;;20.36;57.06
5780;BME280;2916;49.798;10.022;2022-09-24T13:26:27;149348.91;;;20.63;55.21
5780;BME280;2916;49.798;10.022;2022-09-24T13:28:56;149341.47;;;20.59;56.28
5780;BME280;2916;49.798;10.022;2022-09-24T13:31:38;149406.38;;;20.86;56.75
5780;BME280;2916;49.798;10.022;2022-09-24T13:34:17;149343.94;;;20.61;56.04
5780;BME280;2916;49.798;10.022;2022-09-24T13:36:53;149261.44;;;20.27;56.07
5780;BME280;2916;49.798;10.022;2022-09-24T13:39:30;149308.91;;;20.46;55.75